Latest Weather Observations for Esperance Airport

IDW60801

Issued at 8:34 pm WST Saturday 10 December 2016 (issued every 30 minutes, with the page automatically refreshed every 10 minutes)

About weather observations | Map of weather stations | Latest weather observations for WA | Other Formats
Station Details ID: 009542 Name: ESPERANCE AERO Lat: -33.68 Lon: 121.83 Height: 142.0 m
Data from the previous 72 hours. | See also: Recent months at Esperance Airport
Date/Time
WST
Temp
°C
App
Temp
°C
Dew
Point
°C
Rel
Hum
%
Delta-T
°C
Wind Press
QNH
hPa
Press
MSL
hPa
Rain since
9am
mm
Dir  Spd
km/h
Gust
km/h
Spd
kts
Gust
kts
10/08:30pm 22.0 17.4 11.1 50 6.1 ENE 26 39 14 21 1013.6 1013.2 0.0
10/08:03pm 23.0 17.8 10.4 45 7.0 ENE 28 48 15 26 1013.6 1013.2 0.0
10/08:00pm 23.2 18.5 10.6 45 7.0 ENE 26 48 14 26 1013.6 1013.2 0.0
10/07:30pm 24.2 19.5 10.8 43 7.5 ENE 26 37 14 20 1013.7 1013.3 0.0
10/07:00pm 25.9 21.2 9.3 35 9.1 E 24 37 13 20 1013.8 1013.4 0.0
10/06:31pm 27.8 21.2 6.0 25 11.5 E 30 48 16 26 1013.6 1013.2 0.0
10/06:30pm 27.8 21.2 6.0 25 11.5 E 30 46 16 25 1013.6 1013.2 0.0
10/06:03pm 29.1 21.6 4.6 21 12.7 E 33 52 18 28 1013.5 1013.1 0.0
10/06:00pm 29.2 21.2 4.0 20 12.9 E 35 52 19 28 1013.5 1013.1 0.0
10/05:36pm 30.3 23.6 3.4 18 13.7 E 28 48 15 26 1013.5 1013.1 0.0
10/05:30pm 30.6 24.6 5.1 20 13.4 E 26 41 14 22 1013.5 1013.1 0.0
10/05:06pm 31.6 25.1 8.0 23 13.1 ESE 32 50 17 27 1013.4 1013.0 0.0
10/05:00pm 31.4 24.8 8.4 24 12.8 ESE 33 50 18 27 1013.3 1012.9 0.0
10/04:30pm 32.0 25.2 7.6 22 13.5 ESE 33 43 18 23 1013.2 1012.8 0.0
10/04:19pm 31.6 25.0 8.6 24 12.9 ESE 33 43 18 23 1013.3 1012.9 0.0
10/04:00pm 31.7 26.6 12.0 30 11.6 SE 30 41 16 22 1013.3 1012.9 0.0
10/03:30pm 32.3 26.0 10.9 27 12.5 SE 35 43 19 23 1013.4 1013.0 0.0
10/03:00pm 33.1 27.0 9.8 24 13.4 SE 32 46 17 25 1013.7 1013.3 0.0
10/02:30pm 33.0 27.1 10.4 25 13.1 SSE 32 43 17 23 1013.9 1013.5 0.0
10/02:00pm 33.1 27.6 10.4 25 13.2 SE 30 37 16 20 1014.4 1014.0 0.0
10/01:34pm 34.2 30.8 10.7 24 13.8 ESE 19 43 10 23 1014.4 1014.0 0.0
10/01:30pm 34.2 31.8 10.1 23 14.0 E 13 20 7 11 1014.6 1014.2 0.0
10/01:00pm 34.1 32.1 10.0 23 14.0 ENE 11 22 6 12 1015.2 1014.8 0.0
10/12:30pm 34.3 29.6 -1.7 10 17.3 ENE 13 28 7 15 1015.4 1015.0 0.0
10/12:00pm 34.3 30.0 0.8 12 16.8 NNE 13 24 7 13 1015.8 1015.4 0.0
10/11:30am 33.6 29.0 1.4 13 16.2 NE 15 32 8 17 1016.3 1015.9 0.0
10/11:00am 33.2 28.7 2.1 14 15.8 NNE 15 24 8 13 1016.9 1016.4 0.0
10/10:30am 32.8 28.6 3.7 16 15.2 N 15 32 8 17 1017.3 1016.9 0.0
10/10:00am 32.0 27.0 4.7 18 14.4 NNE 20 30 11 16 1017.6 1017.2 0.0
10/09:30am 30.8 26.5 5.3 20 13.5 NNE 17 28 9 15 1018.1 1017.7 0.0
10/09:00am 29.5 26.0 7.4 25 12.0 NNE 15 22 8 12 1018.4 1018.0 0.0
10/08:30am 27.0 22.9 8.0 30 10.3 NNE 19 26 10 14 1018.7 1018.3 0.0
10/08:00am 24.9 21.3 8.4 35 8.9 NNE 17 24 9 13 1018.9 1018.5 0.0
10/07:30am 22.9 19.1 9.0 41 7.5 NNE 19 28 10 15 1018.8 1018.4 0.0
10/07:00am 20.3 16.4 9.5 50 5.8 NNE 20 28 11 15 1018.8 1018.4 0.0
10/06:30am 17.4 14.5 9.8 61 4.0 NE 15 28 8 15 1018.8 1018.4 0.0
10/06:00am 15.1 12.1 9.2 68 3.0 ENE 15 22 8 12 1018.7 1018.3 0.0
10/05:30am 13.4 9.9 8.7 73 2.4 ENE 17 22 9 12 1018.6 1018.2 0.0
10/05:00am 12.8 9.4 7.7 71 2.5 ENE 15 20 8 11 1018.4 1018.0 0.0
10/04:30am 13.2 9.8 7.6 69 2.8 ENE 15 19 8 10 1018.1 1017.7 0.0
10/04:00am 15.0 11.3 7.8 62 3.6 NE 17 24 9 13 1017.7 1017.3 0.0
10/03:30am 15.3 11.2 7.8 61 3.8 NE 19 26 10 14 1017.7 1017.3 0.0
10/03:00am 15.2 11.3 7.3 59 3.9 NE 17 26 9 14 1017.6 1017.2 0.0
10/02:30am 15.9 12.0 6.9 55 4.5 NE 17 26 9 14 1017.4 1017.0 0.0
10/02:00am 15.8 12.1 6.5 54 4.6 NE 15 22 8 12 1017.4 1017.0 0.0
10/01:30am 16.2 12.6 6.6 53 4.7 NE 15 22 8 12 1017.4 1017.0 0.0
10/01:00am 16.5 13.0 7.2 54 4.6 NE 15 22 8 12 1017.6 1017.2 0.0
10/12:30am 16.8 13.0 7.7 55 4.6 NE 17 24 9 13 1017.7 1017.3 0.0
10/12:00am 16.7 13.6 8.7 59 4.1 NE 15 24 8 13 1018.0 1017.6 0.0
 
Date/Time
WST
Temp
°C
App
Temp
°C
Dew
Point
°C
Rel
Hum
%
Delta-T
°C
Wind Press
QNH
hPa
Press
MSL
hPa
Rain since
9am
mm
Dir  Spd
km/h
Gust
km/h
Spd
kts
Gust
kts
09/11:30pm 16.4 13.0 9.3 63 3.7 NE 17 24 9 13 1018.3 1017.9 0.0
09/11:00pm 16.7 13.4 9.6 63 3.7 ENE 17 24 9 13 1018.4 1018.0 0.0
09/10:30pm 17.5 14.2 9.7 60 4.1 ENE 17 26 9 14 1018.5 1018.1 0.0
09/10:00pm 18.1 14.5 10.0 59 4.3 ENE 19 24 10 13 1018.6 1018.2 0.0
09/09:30pm 18.8 15.8 10.6 59 4.4 E 17 28 9 15 1018.4 1018.0 0.0
09/09:00pm 19.2 16.4 11.5 61 4.2 ENE 17 24 9 13 1018.2 1017.8 0.0
09/08:30pm 19.5 17.3 12.0 62 4.2 E 15 22 8 12 1018.0 1017.6 0.0
09/08:00pm 19.0 17.1 11.8 63 4.0 ESE 13 17 7 9 1018.1 1017.7 0.0
09/07:30pm 20.3 17.5 10.1 52 5.5 ESE 15 19 8 10 1017.9 1017.5 0.0
09/07:00pm 21.8 18.4 9.3 45 6.7 ESE 17 22 9 12 1017.6 1017.2 0.0
09/06:30pm 23.3 19.3 9.0 40 7.7 ESE 20 26 11 14 1017.3 1016.9 0.0
09/06:00pm 24.5 19.4 9.3 38 8.3 SE 26 33 14 18 1017.0 1016.5 0.0
09/05:30pm 25.5 20.1 8.1 33 9.4 SE 26 33 14 18 1016.8 1016.3 0.0
09/05:00pm 26.5 21.2 8.5 32 9.8 SE 26 32 14 17 1016.6 1016.1 0.0
09/04:30pm 27.5 22.7 8.9 31 10.3 SE 24 33 13 18 1016.3 1015.9 0.0
09/04:00pm 27.3 21.6 8.2 30 10.4 SSE 28 35 15 19 1016.3 1015.9 0.0
09/03:30pm 28.2 22.5 8.5 29 10.8 SSE 28 35 15 19 1016.2 1015.8 0.0
09/03:00pm 29.4 24.1 10.0 30 11.0 SE 28 35 15 19 1016.2 1015.8 0.0
09/02:30pm 30.1 24.7 9.6 28 11.6 SE 28 35 15 19 1016.2 1015.8 0.0
09/02:29pm 29.3 23.7 8.9 28 11.4 SE 28 35 15 19 1016.2 1015.8 0.0
09/02:00pm 30.7 28.1 5.9 21 13.2 NE 9 17 5 9 1016.7 1016.2 0.0
09/01:30pm 29.4 26.4 4.1 20 13.0 ESE 9 19 5 10 1016.9 1016.4 0.0
09/01:00pm 29.0 25.9 3.8 20 12.8 N 9 17 5 9 1017.3 1016.9 0.0
09/12:30pm 29.0 26.7 5.8 23 12.2 SSE 7 15 4 8 1017.8 1017.4 0.0
09/12:00pm 29.5 26.0 5.6 22 12.6 NNW 13 22 7 12 1018.3 1017.9 0.0
09/11:30am 27.1 24.0 5.4 25 11.2 ENE 11 20 6 11 1018.7 1018.3 0.0
09/11:00am 27.6 24.6 7.5 28 10.8 NNW 13 24 7 13 1019.5 1019.1 0.0
09/10:30am 26.0 22.5 7.1 30 10.0 NNE 15 24 8 13 1019.9 1019.5 0.0
09/10:00am 25.2 21.7 7.3 32 9.5 NNE 15 20 8 11 1020.2 1019.8 0.0
09/09:30am 23.6 20.4 6.8 34 8.7 NNE 13 22 7 12 1020.4 1020.0 0.0
09/09:00am 22.7 19.2 7.3 37 8.0 N 15 24 8 13 1020.6 1020.2 0.0
09/08:30am 20.9 17.6 7.9 43 6.8 NNE 15 22 8 12 1021.0 1020.6 0.0
09/08:00am 19.8 15.8 8.2 47 6.0 N 19 28 10 15 1021.0 1020.6 0.0
09/07:30am 17.7 13.0 7.7 52 5.1 NNE 22 30 12 16 1021.1 1020.7 0.0
09/07:00am 15.3 9.0 7.6 60 3.8 NNE 30 41 16 22 1021.1 1020.7 0.0
09/06:30am 14.2 8.0 7.7 65 3.2 NNE 30 39 16 21 1021.2 1020.8 0.0
09/06:00am 12.5 7.3 7.4 71 2.5 NNE 24 33 13 18 1021.3 1020.9 0.0
09/05:30am 10.8 6.3 6.9 77 1.9 NNE 20 26 11 14 1021.2 1020.8 0.0
09/05:00am 9.6 5.6 6.5 81 1.4 NNE 17 24 9 13 1021.1 1020.7 0.0
09/04:30am 9.5 5.8 6.4 81 1.4 NNE 15 22 8 12 1021.1 1020.7 0.0
09/04:00am 9.7 6.0 6.4 80 1.5 NE 15 22 8 12 1021.0 1020.6 0.0
09/03:30am 10.0 7.1 6.5 79 1.6 NE 11 17 6 9 1021.1 1020.7 0.0
09/03:00am 10.0 7.1 6.5 79 1.6 NE 11 17 6 9 1021.2 1020.8 0.0
09/02:30am 9.7 6.8 6.4 80 1.5 ENE 11 17 6 9 1021.3 1020.9 0.0
09/02:00am 9.4 6.8 6.1 80 1.5 ENE 9 13 5 7 1021.5 1021.1 0.0
09/01:30am 9.7 6.7 6.2 79 1.6 ENE 11 15 6 8 1021.5 1021.1 0.0
09/01:00am 10.1 7.2 6.3 77 1.8 ENE 11 17 6 9 1021.5 1021.1 0.0
09/12:30am 10.7 7.4 6.5 75 2.0 ENE 13 17 7 9 1021.7 1021.3 0.0
09/12:00am 10.7 7.4 6.6 76 1.9 ENE 13 20 7 11 1021.7 1021.3 0.0
 
Date/Time
WST
Temp
°C
App
Temp
°C
Dew
Point
°C
Rel
Hum
%
Delta-T
°C
Wind Press
QNH
hPa
Press
MSL
hPa
Rain since
9am
mm
Dir  Spd
km/h
Gust
km/h
Spd
kts
Gust
kts
08/11:30pm 10.8 8.0 6.9 77 1.9 ENE 11 17 6 9 1021.8 1021.4 0.0
08/11:00pm 11.2 8.1 7.1 76 2.0 ENE 13 17 7 9 1022.2 1021.8 0.0
08/10:30pm 11.6 8.6 7.5 76 2.0 ENE 13 19 7 10 1022.5 1022.1 0.0
08/10:00pm 12.1 8.7 7.8 75 2.1 ENE 15 20 8 11 1022.5 1022.1 0.0
08/09:30pm 12.6 9.6 7.9 73 2.3 ENE 13 19 7 10 1022.6 1022.2 0.0
08/09:00pm 12.8 9.5 7.9 72 2.4 E 15 20 8 11 1022.8 1022.4 0.0
08/08:30pm 13.1 9.8 8.0 71 2.5 E 15 20 8 11 1022.7 1022.3 0.0
08/08:00pm 13.3 9.2 7.7 69 2.8 ESE 19 24 10 13 1022.6 1022.2 0.0
08/07:30pm 13.7 9.4 7.7 67 3.0 ESE 20 26 11 14 1022.5 1022.1 0.0
08/07:00pm 14.5 9.1 7.8 64 3.3 ESE 26 33 14 18 1022.3 1021.9 0.0
08/06:30pm 15.6 10.1 7.4 58 4.1 ESE 26 33 14 18 1022.2 1021.8 0.0
08/06:00pm 16.3 10.5 8.0 58 4.2 SE 28 37 15 20 1021.8 1021.4 0.0
08/05:30pm 17.2 11.1 8.1 55 4.7 SE 30 41 16 22 1021.5 1021.1 0.0
08/05:00pm 17.2 11.0 7.8 54 4.8 SSE 30 39 16 21 1021.4 1021.0 0.0
08/04:30pm 17.8 12.3 7.5 51 5.2 SSE 26 39 14 21 1021.4 1021.0 0.0
08/04:00pm 18.0 12.1 7.4 50 5.4 SSE 28 39 15 21 1021.4 1021.0 0.0
08/03:30pm 19.1 13.7 7.8 48 5.8 SE 26 37 14 20 1021.3 1020.9 0.0
08/03:00pm 19.6 14.1 7.7 46 6.1 SSE 26 35 14 19 1021.3 1020.9 0.0
08/02:30pm 19.8 14.1 8.2 47 6.1 SE 28 35 15 19 1021.3 1020.9 0.0
08/02:00pm 20.1 14.8 8.4 47 6.1 SE 26 37 14 20 1021.4 1021.0 0.0
08/01:30pm 19.7 14.6 7.8 46 6.2 SSE 24 32 13 17 1021.6 1021.2 0.0
08/01:00pm 19.3 15.1 7.4 46 6.1 SE 19 33 10 18 1021.7 1021.3 0.0
08/12:30pm 19.9 15.2 7.6 45 6.3 SSE 22 39 12 21 1021.9 1021.5 0.0
08/12:00pm 21.5 17.8 8.1 42 7.0 SE 17 28 9 15 1022.2 1021.8 0.0
08/11:30am 19.8 15.5 7.2 44 6.4 S 19 30 10 16 1022.5 1022.1 0.0
08/11:00am 19.0 14.9 6.2 43 6.4 SE 17 26 9 14 1022.5 1022.1 0.0
08/10:30am 19.3 15.6 6.1 42 6.6 SE 15 28 8 15 1022.7 1022.3 0.0
08/10:00am 18.2 14.5 6.4 46 5.9 ESE 15 30 8 16 1022.9 1022.5 0.0
08/09:30am 17.9 14.3 6.7 48 5.6 SE 15 22 8 12 1022.9 1022.5 0.0
08/09:00am 16.9 13.6 6.4 50 5.2 S 13 20 7 11 1022.9 1022.5 0.0
08/08:30am 17.3 14.1 6.8 50 5.2 SSE 13 20 7 11 1023.0 1022.6 0.0
08/08:00am 16.2 12.2 6.6 53 4.7 ESE 17 24 9 13 1022.9 1022.5 0.0
08/07:30am 15.7 12.2 7.0 56 4.3 SE 15 22 8 12 1022.9 1022.5 0.0
08/07:00am 15.3 11.3 6.6 56 4.2 SSE 17 24 9 13 1022.8 1022.4 0.0
08/06:30am 14.8 10.4 6.6 58 4.0 SSE 19 24 10 13 1022.4 1022.0 0.0
08/06:00am 14.2 12.3 7.7 65 3.2 S 7 11 4 6 1021.9 1021.5 0.0
08/05:30am 13.8 11.8 7.1 64 3.3 SSW 7 9 4 5 1021.6 1021.2 0.0
08/05:00am 13.6 11.6 6.9 64 3.3 SSE 7 11 4 6 1021.5 1021.1 0.0
08/04:30am 13.6 11.1 6.7 63 3.4 S 9 15 5 8 1021.3 1020.9 0.0
08/04:00am 13.7 9.7 6.8 63 3.3 S 17 22 9 12 1021.0 1020.6 0.0
08/03:30am 13.7 10.7 7.5 66 3.1 S 13 17 7 9 1020.5 1020.1 0.0
08/03:00am 13.1 10.4 7.3 68 2.8 S 11 13 6 7 1020.3 1019.9 0.0
08/02:30am 12.8 10.5 7.3 69 2.7 SSW 9 13 5 7 1020.3 1019.9 0.0
08/02:00am 11.2 9.1 6.5 73 2.2 SSW 7 11 4 6 1020.3 1019.9 0.0
08/01:30am 12.5 9.0 7.0 69 2.7 S 15 19 8 10 1020.3 1019.9 0.0
08/01:00am 13.9 9.9 8.1 68 2.9 S 19 24 10 13 1020.1 1019.7 0.0
08/12:30am 13.7 10.3 9.2 74 2.3 S 17 22 9 12 1020.2 1019.8 0.0
08/12:00am 13.6 11.4 9.5 76 2.1 SSW 11 15 6 8 1020.4 1020.0 0.0
 
Date/Time
WST
Temp
°C
App
Temp
°C
Dew
Point
°C
Rel
Hum
%
Delta-T
°C
Wind Press
QNH
hPa
Press
MSL
hPa
Rain since
9am
mm
Dir  Spd
km/h
Gust
km/h
Spd
kts
Gust
kts
07/11:30pm 13.2 9.2 8.3 72 2.5 SSW 19 32 10 17 1020.6 1020.2 0.0
07/11:00pm 12.5 9.2 6.3 66 2.9 SSW 13 17 7 9 1020.6 1020.2 0.0
07/10:30pm 12.9 8.3 6.3 64 3.2 S 20 26 11 14 1020.7 1020.3 0.0
07/10:00pm 13.3 8.8 6.9 65 3.1 S 20 26 11 14 1020.7 1020.3 0.0
07/09:30pm 13.9 10.2 8.1 68 2.9 SSW 17 20 9 11 1020.7 1020.3 0.0
07/09:00pm 13.8 10.9 8.0 68 2.9 SSW 13 20 7 11 1020.5 1020.1 0.0

Other Formats:

Comma delimited format used in spreadsheet applications
http://www.bom.gov.au/fwo/IDW60801/IDW60801.95638.axf

JavaScript Object Notation format (JSON) in row-major order
http://www.bom.gov.au/fwo/IDW60801/IDW60801.95638.json